Latest Weather Observations for Cape Otway

IDV60801

Issued at 1:32 pm EST Tuesday 27 September 2016 (issued every 30 minutes, with the page automatically refreshed every 10 minutes)

About weather observations | Map of weather stations | Latest weather observations for VIC | Other Formats
Station Details ID: 090015 Name: CAPE OTWAY LIGHTHOUSE Lat: -38.86 Lon: 143.51 Height: 82.0 m
Data from the previous 72 hours. | See also: Recent months at Cape Otway
Date/Time
EST
Temp
°C
App
Temp
°C
Dew
Point
°C
Rel
Hum
%
Delta-T
°C
Wind Press
QNH
hPa
Press
MSL
hPa
Rain since
9am
mm
Dir  Spd
km/h
Gust
km/h
Spd
kts
Gust
kts
27/01:30pm 12.3 5.6 5.7 64 3.1 W 30 41 16 22 1011.5 - 0.4
27/01:00pm 12.3 5.3 6.1 66 2.9 W 32 43 17 23 1011.5 - 0.4
27/12:30pm 12.2 5.4 6.7 69 2.6 W 32 46 17 25 1011.5 - 0.4
27/12:00pm 12.3 5.2 8.0 75 2.1 W 35 50 19 27 1011.4 1011.5 0.4
27/11:30am 11.8 5.6 9.4 85 1.2 W 32 46 17 25 1011.2 - 0.4
27/11:00am 11.5 5.6 9.2 86 1.2 WSW 30 43 16 23 1011.1 - 0.2
27/10:30am 11.1 6.0 9.2 88 1.0 WSW 26 37 14 20 1011.1 - 0.2
27/10:00am 11.3 5.7 8.9 85 1.2 WSW 28 41 15 22 1010.8 - 0.0
27/09:30am 11.2 6.3 8.4 83 1.4 WNW 24 35 13 19 1010.6 - 0.0
27/09:00am 11.8 7.4 9.0 83 1.4 WNW 22 32 12 17 1010.1 1010.2 5.4
27/08:30am 10.8 6.9 8.7 87 1.0 NNW 19 28 10 15 1010.0 - 5.4
27/08:00am 9.2 5.0 7.3 88 0.9 NNW 19 30 10 16 1009.8 - 5.4
27/07:30am 8.8 4.5 7.1 89 0.8 NNW 19 26 10 14 1009.6 - 5.4
27/07:00am 7.9 3.2 6.2 89 0.8 NNW 20 28 11 15 1009.3 - 5.4
27/06:30am 7.7 2.2 6.0 89 0.8 NNW 24 32 13 17 1009.0 - 5.4
27/06:00am 7.3 2.7 5.6 89 0.8 NW 19 26 10 14 1008.5 1008.6 5.4
27/05:30am 7.2 2.5 5.3 88 0.8 NNW 19 24 10 13 1008.2 - 5.4
27/05:00am 6.9 2.2 5.1 88 0.8 NNW 19 26 10 14 1008.1 - 5.4
27/04:30am 7.0 1.8 5.3 89 0.8 NNW 22 30 12 16 1008.1 - 5.4
27/04:00am 6.9 1.6 5.2 89 0.8 NNW 22 30 12 16 1007.9 - 5.4
27/03:30am 6.2 1.2 4.5 89 0.7 NNW 20 24 11 13 1008.1 - 5.4
27/03:00am 6.6 1.6 4.8 88 0.8 NNW 20 24 11 13 1008.0 1008.1 5.4
27/02:30am 8.0 3.5 6.1 88 0.9 NW 19 24 10 13 1008.0 - 5.4
27/02:00am 7.5 3.3 5.5 87 0.9 NW 17 24 9 13 1008.3 - 5.4
27/01:30am 7.1 2.2 4.9 86 1.0 NNW 20 26 11 14 1008.4 - 5.0
27/01:00am 7.8 3.2 5.6 86 1.0 NW 19 30 10 16 1008.4 - 5.0
27/12:30am 8.6 3.2 6.4 86 1.0 WNW 24 37 13 20 1008.3 - 5.0
27/12:00am 7.3 2.6 5.3 87 0.9 NW 19 28 10 15 1008.3 1008.4 5.0
 
Date/Time
EST
Temp
°C
App
Temp
°C
Dew
Point
°C
Rel
Hum
%
Delta-T
°C
Wind Press
QNH
hPa
Press
MSL
hPa
Rain since
9am
mm
Dir  Spd
km/h
Gust
km/h
Spd
kts
Gust
kts
26/11:30pm 7.2 2.5 5.2 87 0.9 NNW 19 24 10 13 1008.8 - 5.0
26/11:00pm 7.3 3.0 5.1 86 1.0 NNW 17 24 9 13 1008.8 - 5.0
26/10:30pm 7.6 3.0 5.6 87 0.9 NNW 19 28 10 15 1009.1 - 5.0
26/10:00pm 7.6 3.8 5.6 87 0.9 NNW 15 20 8 11 1009.2 - 5.0
26/09:30pm 7.3 2.6 5.1 86 1.0 NNW 19 22 10 12 1009.2 - 5.0
26/09:00pm 7.4 3.0 5.0 85 1.1 NNW 17 22 9 12 1009.2 1009.3 5.0
26/08:30pm 7.4 2.7 5.2 86 1.0 NNW 19 24 10 13 1008.8 - 5.0
26/08:00pm 7.4 2.5 5.2 86 1.0 NNW 20 32 11 17 1008.9 - 5.0
26/07:30pm 7.3 3.4 5.3 87 0.9 NNW 15 22 8 12 1008.3 - 5.0
26/07:00pm 7.3 2.4 5.3 87 0.9 NW 20 32 11 17 1009.1 - 4.4
26/06:30pm 8.3 2.8 6.1 86 1.0 NW 24 39 13 21 1009.5 - 3.4
26/06:05pm 8.8 2.3 6.4 85 1.1 W 30 48 16 26 1009.2 - 3.0
26/06:00pm 8.8 1.7 6.2 84 1.2 W 33 48 18 26 1009.2 1009.3 2.8
26/05:49pm 9.0 2.4 6.1 82 1.3 WSW 30 63 16 34 1008.9 - 2.4
26/05:44pm 8.1 -0.1 4.7 79 1.5 SW 37 78 20 42 1008.7 - 1.6
26/05:38pm 8.8 -3.6 4.8 76 1.8 W 59 78 32 42 1007.7 - 1.0
26/05:35pm 9.7 1.6 5.1 73 2.1 WNW 37 65 20 35 1007.8 - 0.4
26/05:34pm 10.4 3.2 5.8 73 2.1 WNW 33 48 18 26 1007.9 - 0.0
26/05:30pm 11.9 8.4 7.4 74 2.2 E 15 22 8 12 1007.3 - 0.0
26/05:00pm 12.3 9.3 7.6 73 2.3 E 13 19 7 10 1007.5 - 0.0
26/04:30pm 12.3 9.2 7.4 72 2.4 E 13 20 7 11 1007.4 - 0.0
26/04:00pm 12.3 9.3 7.6 73 2.3 SE 13 24 7 13 1007.6 - 0.0
26/03:30pm 12.3 8.5 7.4 72 2.4 ESE 17 24 9 13 1007.9 - 0.0
26/03:00pm 12.5 8.7 7.4 71 2.5 E 17 22 9 12 1008.2 1008.3 0.0
26/02:30pm 12.6 9.1 7.1 69 2.7 ENE 15 22 8 12 1008.4 - 0.0
26/02:00pm 13.6 10.4 6.9 64 3.3 E 13 20 7 11 1008.6 - 0.0
26/01:30pm 14.0 10.5 7.3 64 3.3 WNW 15 22 8 12 1009.0 - 0.0
26/01:00pm 14.5 10.4 6.3 58 4.0 W 17 28 9 15 1009.3 - 0.0
26/12:30pm 15.4 11.4 6.7 56 4.3 WNW 17 26 9 14 1009.6 - 0.0
26/12:00pm 14.0 10.3 6.1 59 3.8 W 15 22 8 12 1010.0 1010.1 0.0
26/11:30am 13.7 10.0 6.1 60 3.6 W 15 20 8 11 1010.4 - 0.0
26/11:00am 13.4 9.3 6.3 62 3.4 WNW 17 22 9 12 1010.8 - 0.0
26/10:30am 13.7 9.6 6.3 61 3.6 W 17 24 9 13 1010.9 - 0.0
26/10:00am 13.1 8.6 6.0 62 3.4 WNW 19 24 10 13 1011.2 - 0.0
26/09:30am 12.6 8.1 6.0 64 3.1 WNW 19 28 10 15 1011.4 - 0.0
26/09:00am 12.0 7.7 5.4 64 3.1 NW 17 24 9 13 1011.6 1011.7 0.4
26/08:30am 11.3 7.0 5.4 67 2.7 NW 17 22 9 12 1011.6 - 0.4
26/08:00am 10.6 6.5 6.2 74 2.1 NNW 17 24 9 13 1011.5 - 0.4
26/07:30am 9.2 4.6 5.6 78 1.6 NNW 19 24 10 13 1011.7 - 0.4
26/07:00am 8.1 3.7 5.0 81 1.4 NNW 17 22 9 12 1011.9 - 0.4
26/06:30am 7.5 3.1 4.5 81 1.3 N 17 24 9 13 1011.9 - 0.4
26/06:00am 7.6 3.1 4.4 80 1.4 N 17 22 9 12 1011.8 1011.9 0.4
26/05:30am 7.9 3.1 4.5 79 1.5 N 19 24 10 13 1011.6 - 0.4
26/05:00am 8.0 3.2 4.6 79 1.5 N 19 24 10 13 1011.5 - 0.4
26/04:30am 8.0 3.2 4.6 79 1.5 N 19 26 10 14 1011.5 - 0.4
26/04:00am 7.8 3.7 4.2 78 1.6 N 15 20 8 11 1011.6 - 0.4
26/03:30am 7.7 3.1 3.9 77 1.6 N 17 20 9 11 1011.8 - 0.4
26/03:00am 7.9 3.4 4.1 77 1.7 N 17 22 9 12 1011.9 1012.0 0.4
26/02:30am 8.1 3.6 4.1 76 1.7 N 17 22 9 12 1012.1 - 0.4
26/02:00am 8.2 4.0 4.0 75 1.8 N 15 19 8 10 1012.4 - 0.4
26/01:30am 8.5 4.4 4.1 74 1.9 N 15 19 8 10 1012.7 - 0.4
26/01:00am 8.4 4.3 4.2 75 1.8 N 15 19 8 10 1012.9 - 0.4
26/12:30am 8.1 3.6 4.3 77 1.7 N 17 20 9 11 1013.1 - 0.4
26/12:00am 7.8 3.6 4.0 77 1.6 N 15 20 8 11 1013.1 1013.2 0.4
 
Date/Time
EST
Temp
°C
App
Temp
°C
Dew
Point
°C
Rel
Hum
%
Delta-T
°C
Wind Press
QNH
hPa
Press
MSL
hPa
Rain since
9am
mm
Dir  Spd
km/h
Gust
km/h
Spd
kts
Gust
kts
25/11:30pm 7.7 3.2 4.1 78 1.6 N 17 20 9 11 1013.2 - 0.4
25/11:00pm 7.8 3.6 4.0 77 1.6 N 15 19 8 10 1013.3 - 0.4
25/10:30pm 7.8 3.6 4.0 77 1.6 N 15 19 8 10 1013.6 - 0.4
25/10:00pm 7.7 3.5 3.9 77 1.6 NNW 15 17 8 9 1013.7 - 0.4
25/09:30pm 7.7 3.5 3.7 76 1.7 NNW 15 17 8 9 1013.7 - 0.4
25/09:00pm 7.8 3.9 3.5 74 1.8 NNW 13 17 7 9 1013.7 1013.8 0.4
25/08:30pm 8.6 4.8 3.8 72 2.1 NNW 13 17 7 9 1013.6 - 0.4
25/08:00pm 10.3 6.6 4.5 67 2.6 WNW 13 19 7 10 1013.4 - 0.4
25/07:30pm 10.7 6.8 5.3 69 2.5 W 15 24 8 13 1013.3 - 0.4
25/07:00pm 10.6 6.2 4.9 68 2.6 W 17 26 9 14 1013.0 - 0.4
25/06:30pm 10.8 6.0 4.5 65 2.8 W 19 26 10 14 1012.6 - 0.4
25/06:00pm 11.2 6.4 4.7 64 3.0 W 19 24 10 13 1012.2 1012.3 0.4
25/05:30pm 11.5 6.4 4.3 61 3.3 W 20 26 11 14 1012.1 - 0.4
25/05:00pm 12.1 6.8 4.8 61 3.4 W 22 30 12 16 1011.9 - 0.4
25/04:30pm 12.2 6.9 5.1 62 3.3 W 22 30 12 16 1011.7 - 0.4
25/04:00pm 11.8 6.5 5.2 64 3.0 W 22 30 12 16 1011.7 - 0.4
25/03:30pm 12.2 6.6 5.4 63 3.2 W 24 32 13 17 1011.6 - 0.4
25/03:00pm 12.7 7.1 5.6 62 3.3 W 24 33 13 18 1011.3 1011.4 0.4
25/02:30pm 12.6 6.6 5.5 62 3.3 W 26 33 14 18 1011.4 - 0.4
25/02:00pm 12.8 6.3 4.8 58 3.7 W 28 37 15 20 1011.4 - 0.4
25/01:30pm 12.5 6.0 4.7 59 3.6 W 28 43 15 23 1011.4 - 0.4
25/01:00pm 12.5 6.1 5.0 60 3.5 WSW 28 43 15 23 1011.5 - 0.4
25/12:30pm 12.6 6.2 5.3 61 3.4 WSW 28 41 15 22 1011.6 - 0.4
25/12:00pm 12.1 4.4 5.5 64 3.1 WSW 35 46 19 25 1011.5 1011.6 0.4
25/11:30am 12.2 5.8 5.1 62 3.3 W 28 41 15 22 1011.4 - 0.4
25/11:00am 11.9 4.4 4.4 60 3.4 W 33 44 18 24 1011.2 - 0.4
25/10:30am 11.2 4.2 5.9 70 2.5 WSW 32 46 17 25 1011.0 - 0.4
25/10:03am 10.9 4.0 4.8 66 2.8 W 30 50 16 27 1010.9 - 0.0
25/10:00am 11.7 5.0 5.6 66 2.8 WSW 30 43 16 23 1010.9 - 0.0
25/09:30am 11.3 4.0 5.6 68 2.6 WSW 33 46 18 25 1010.7 - 0.0
25/09:00am 11.4 4.3 5.7 68 2.7 WSW 32 43 17 23 1010.5 1010.6 3.8
25/08:30am 11.1 4.2 4.8 65 2.9 WSW 30 44 16 24 1010.1 - 3.8
25/08:00am 10.8 3.3 4.5 65 2.8 WSW 33 48 18 26 1009.6 - 3.8
25/07:30am 10.7 3.3 5.0 68 2.6 W 33 44 18 24 1009.2 - 3.8
25/07:00am 10.2 3.4 5.2 71 2.3 W 30 41 16 22 1009.0 - 3.8
25/06:30am 9.6 2.2 5.0 73 2.1 W 33 56 18 30 1008.6 - 3.8
25/06:00am 8.6 0.7 4.2 74 1.9 W 35 56 19 30 1008.4 1008.5 3.8
25/05:49am 10.1 2.8 4.5 68 2.5 W 32 52 17 28 1008.3 - 3.2
25/05:30am 10.0 3.0 4.2 67 2.6 WSW 30 43 16 23 1008.2 - 3.2
25/05:00am 10.7 3.0 5.3 69 2.5 W 35 54 19 29 1007.6 - 3.2
25/04:59am 10.9 3.2 5.2 68 2.6 W 35 54 19 29 1007.6 - 3.2
25/04:30am 10.8 3.3 4.5 65 2.8 W 33 50 18 27 1007.3 - 3.2
25/04:00am 10.9 2.7 4.8 66 2.8 W 37 52 20 28 1007.1 - 3.2
25/03:30am 10.9 3.2 5.2 68 2.6 W 35 50 19 27 1006.8 - 3.2
25/03:00am 11.2 4.4 6.9 75 2.1 W 32 46 17 25 1006.7 1006.8 3.2
25/02:37am 11.3 4.7 6.2 71 2.4 W 30 48 16 26 1006.6 - 3.2
25/02:30am 11.2 3.9 5.3 67 2.7 W 33 48 18 26 1006.7 - 3.2
25/02:00am 11.6 4.1 6.5 71 2.4 W 35 50 19 27 1006.5 - 3.2
25/01:30am 11.4 3.7 6.9 74 2.2 W 37 57 20 31 1006.3 - 3.2
25/01:27am 11.7 4.7 7.0 73 2.3 W 33 57 18 31 1006.3 - 3.2
25/01:00am 11.5 5.2 7.4 76 2.0 W 30 46 16 25 1006.3 - 3.2
25/12:30am 11.7 5.4 7.4 75 2.1 W 30 39 16 21 1006.2 - 3.2
25/12:00am 11.8 5.6 7.9 77 1.9 WSW 30 41 16 22 1006.3 1006.4 3.2
 
Date/Time
EST
Temp
°C
App
Temp
°C
Dew
Point
°C
Rel
Hum
%
Delta-T
°C
Wind Press
QNH
hPa
Press
MSL
hPa
Rain since
9am
mm
Dir  Spd
km/h
Gust
km/h
Spd
kts
Gust
kts
24/11:30pm 11.9 5.9 8.6 80 1.6 W 30 41 16 22 1006.2 - 3.2
24/11:00pm 11.4 5.9 9.0 85 1.2 WSW 28 43 15 23 1006.1 - 3.2
24/10:41pm 11.9 6.4 9.3 84 1.3 W 28 46 15 25 1006.0 - 3.2
24/10:30pm 12.0 5.9 9.6 85 1.2 W 32 44 17 24 1006.0 - 3.2
24/10:00pm 11.8 5.5 9.7 87 1.1 W 33 46 18 25 1005.6 - 3.2
24/09:30pm 11.6 4.5 9.7 88 1.0 W 37 54 20 29 1005.3 - 3.2
24/09:13pm 12.2 5.3 10.3 88 1.0 W 37 50 20 27 1005.1 - 3.0
24/09:00pm 12.5 8.1 10.4 87 1.1 NNW 24 41 13 22 1004.6 1004.6 2.6
24/08:30pm 12.8 9.1 10.2 84 1.3 N 20 33 11 18 1004.6 - 1.0
24/08:00pm 12.9 8.6 9.5 80 1.7 N 22 33 12 18 1004.3 - 0.8
24/07:30pm 13.2 8.4 8.9 75 2.2 N 24 39 13 21 1004.0 - 0.4
24/07:00pm 14.1 10.3 8.9 71 2.6 N 19 37 10 20 1003.9 - 0.0
24/06:30pm 15.2 10.2 8.2 63 3.5 N 24 43 13 23 1003.7 - 0.0
24/06:09pm 16.1 10.3 7.8 58 4.2 NNW 28 46 15 25 1003.4 - 0.0
24/06:00pm 16.1 11.1 8.1 59 4.1 N 24 39 13 21 1003.3 1003.3 0.0
24/05:30pm 16.4 10.9 7.6 56 4.4 N 26 39 14 21 1003.1 - 0.0
24/05:00pm 16.4 10.8 7.3 55 4.5 N 26 37 14 20 1003.1 - 0.0
24/04:30pm 16.7 11.1 7.1 53 4.8 N 26 39 14 21 1003.1 - 0.0
24/04:08pm 16.1 10.1 7.1 55 4.5 N 28 46 15 25 1003.2 - 0.0
24/04:00pm 16.8 12.3 6.9 52 4.9 N 20 35 11 19 1003.3 - 0.0
24/03:30pm 16.8 11.7 7.7 55 4.6 NNW 24 46 13 25 1003.8 - 0.0
24/03:00pm 16.9 13.2 7.8 55 4.6 N 17 28 9 15 1003.8 1003.8 0.0
24/02:30pm 17.2 13.9 8.1 55 4.6 NNW 15 22 8 12 1003.9 - 0.0
24/02:00pm 17.4 13.4 8.3 55 4.7 N 19 28 10 15 1003.9 - 0.0

Other Formats:

Comma delimited format used in spreadsheet applications
http://www.bom.gov.au/fwo/IDV60801/IDV60801.94842.axf

JavaScript Object Notation format (JSON) in row-major order
http://www.bom.gov.au/fwo/IDV60801/IDV60801.94842.json